createdAt,value
2023-05-04T00:02:13.325Z,98.70
2023-05-04T00:04:42.769Z,98.90
2023-05-04T00:07:12.285Z,99.40
2023-05-04T00:09:40.317Z,99.60
2023-05-04T00:12:08.893Z,98.90
2023-05-04T00:14:36.977Z,98.60
2023-05-04T00:17:06.598Z,98.60
2023-05-04T00:19:35.090Z,98.50
2023-05-04T00:22:03.443Z,98.30
2023-05-04T00:24:32.763Z,98.10
2023-05-04T00:27:00.814Z,98.70
2023-05-04T00:29:29.039Z,99.90
2023-05-04T00:31:57.197Z,99.90
2023-05-04T00:34:25.670Z,99.40
2023-05-04T00:36:53.619Z,99.30
2023-05-04T00:39:21.558Z,99.20
2023-05-04T00:41:50.795Z,99.50
2023-05-04T00:44:18.944Z,99.80
2023-05-04T00:46:47.367Z,99.90
2023-05-04T00:49:15.382Z,99.90
2023-05-04T00:51:43.487Z,99.90
2023-05-04T00:54:11.432Z,99.90
2023-05-04T00:56:42.264Z,99.90
2023-05-04T00:59:13.494Z,99.90
2023-05-04T01:01:41.575Z,99.90
2023-05-04T01:04:10.231Z,99.90
2023-05-04T01:06:45.491Z,99.90
2023-05-04T01:09:23.245Z,99.90
2023-05-04T01:11:59.228Z,99.90
2023-05-04T01:14:31.041Z,99.90
2023-05-04T01:17:00.457Z,99.90
2023-05-04T01:19:29.269Z,99.90
2023-05-04T01:21:58.663Z,99.90
2023-05-04T01:24:27.718Z,99.90
2023-05-04T01:27:02.403Z,99.90
2023-05-04T01:29:35.886Z,99.90
2023-05-04T01:32:04.333Z,99.90
2023-05-04T01:34:32.377Z,99.90
2023-05-04T01:37:02.295Z,99.90
2023-05-04T01:39:30.904Z,99.90
2023-05-04T01:41:58.942Z,99.90
2023-05-04T01:44:27.035Z,99.90
2023-05-04T01:46:55.253Z,99.90
2023-05-04T01:49:23.188Z,99.90
2023-05-04T01:51:51.369Z,99.90
2023-05-04T01:54:20.731Z,99.90
2023-05-04T01:56:48.710Z,99.90
2023-05-04T01:59:16.963Z,99.90
2023-05-04T02:01:44.996Z,99.90
2023-05-04T02:04:13.082Z,99.90
2023-05-04T02:06:41.307Z,99.90
2023-05-04T02:09:09.328Z,99.90
2023-05-04T02:11:38.666Z,99.90
2023-05-04T02:14:06.723Z,99.90
2023-05-04T02:16:34.708Z,99.90
2023-05-04T02:19:02.785Z,99.90
2023-05-04T02:21:31.098Z,99.90
2023-05-04T02:23:59.312Z,99.90
2023-05-04T02:26:27.303Z,99.90
2023-05-04T02:28:56.585Z,99.90
2023-05-04T02:31:25.120Z,99.90
2023-05-04T02:33:53.918Z,99.90
2023-05-04T02:36:21.868Z,99.90
2023-05-04T02:38:51.418Z,99.90
2023-05-04T02:41:19.403Z,99.90
2023-05-04T02:43:47.436Z,99.90
2023-05-04T02:46:16.984Z,99.90
2023-05-04T02:48:45.039Z,99.90
2023-05-04T02:51:13.007Z,99.90
2023-05-04T02:53:41.040Z,99.90
2023-05-04T02:56:09.033Z,99.90
2023-05-04T02:58:36.969Z,99.90
2023-05-04T03:01:05.042Z,99.90
2023-05-04T03:03:34.449Z,99.90
2023-05-04T03:06:02.423Z,99.90
2023-05-04T03:08:30.931Z,99.90
2023-05-04T03:10:58.907Z,99.90
2023-05-04T03:13:26.956Z,99.90
2023-05-04T03:15:54.978Z,99.90
2023-05-04T03:18:22.937Z,99.90
2023-05-04T03:20:52.290Z,99.90
2023-05-04T03:23:20.575Z,99.90
2023-05-04T03:25:48.537Z,99.90
2023-05-04T03:28:16.615Z,99.90
2023-05-04T03:30:44.600Z,99.90
2023-05-04T03:33:12.587Z,99.90
2023-05-04T03:35:40.834Z,99.90
2023-05-04T03:38:11.410Z,99.90
2023-05-04T03:40:39.541Z,99.90
2023-05-04T03:43:07.521Z,99.90
2023-05-04T03:45:35.478Z,99.90
2023-05-04T03:48:03.985Z,99.90
2023-05-04T03:50:32.106Z,99.90
2023-05-04T03:53:00.146Z,99.90
2023-05-04T03:55:29.500Z,99.90
2023-05-04T03:57:57.517Z,99.90
2023-05-04T04:00:25.504Z,99.90
2023-05-04T04:02:53.592Z,99.90
2023-05-04T04:05:21.858Z,99.90
2023-05-04T04:07:49.808Z,99.90
2023-05-04T04:10:17.914Z,99.90
2023-05-04T04:12:47.205Z,99.90
2023-05-04T04:15:15.175Z,99.90
2023-05-04T04:17:43.209Z,99.90
2023-05-04T04:20:13.014Z,99.90
2023-05-04T04:22:41.069Z,99.90
2023-05-04T04:25:10.472Z,99.90
2023-05-04T04:27:38.454Z,99.90
2023-05-04T04:30:11.985Z,99.90
2023-05-04T04:32:40.471Z,99.90
2023-05-04T04:35:09.235Z,99.90
2023-05-04T04:37:37.192Z,99.90
2023-05-04T04:40:07.738Z,99.90
2023-05-04T04:42:35.912Z,99.90
2023-05-04T04:45:05.441Z,99.90
2023-05-04T04:47:34.813Z,99.90
2023-05-04T04:50:03.493Z,99.90
2023-05-04T04:52:32.920Z,98.00
2023-05-04T04:55:00.957Z,95.60
2023-05-04T04:57:31.189Z,91.80
2023-05-04T05:00:00.835Z,87.60
2023-05-04T05:02:29.120Z,83.80
2023-05-04T05:04:58.484Z,77.20
2023-05-04T05:07:27.066Z,73.30
2023-05-04T05:09:55.026Z,70.10
2023-05-04T05:12:23.032Z,63.60
2023-05-04T05:14:51.739Z,59.10
2023-05-04T05:17:21.223Z,53.60
2023-05-04T05:19:50.062Z,49.30
2023-05-04T05:22:19.403Z,49.40
2023-05-04T05:24:47.372Z,46.40
2023-05-04T05:27:15.326Z,46.80
2023-05-04T05:29:44.494Z,47.70
2023-05-04T05:32:12.464Z,49.90
2023-05-04T05:34:40.457Z,49.80
2023-05-04T05:37:08.548Z,49.50
2023-05-04T05:39:37.993Z,50.80
2023-05-04T05:42:06.320Z,51.80
2023-05-04T05:44:37.385Z,51.70
2023-05-04T05:47:05.831Z,48.90
2023-05-04T05:49:34.018Z,50.70
2023-05-04T05:52:02.165Z,52.40
2023-05-04T05:54:31.911Z,52.70
2023-05-04T05:57:01.821Z,52.90
2023-05-04T05:59:29.769Z,50.50
2023-05-04T06:01:57.760Z,49.70
2023-05-04T06:04:25.824Z,46.10
2023-05-04T06:06:53.839Z,46.20
2023-05-04T06:09:22.112Z,43.70
2023-05-04T06:11:50.110Z,46.60
2023-05-04T06:14:19.404Z,43.60
2023-05-04T06:16:47.363Z,43.60
2023-05-04T06:19:15.375Z,39.20
2023-05-04T06:21:43.319Z,41.10
2023-05-04T06:24:11.376Z,38.20
2023-05-04T06:26:39.422Z,35.40
2023-05-04T06:29:07.491Z,31.70
2023-05-04T06:31:37.761Z,27.60
2023-05-04T06:34:05.814Z,28.90
2023-05-04T06:36:33.801Z,27.00
2023-05-04T06:39:01.793Z,25.30
2023-05-04T06:41:30.002Z,23.90
2023-05-04T06:43:59.953Z,24.60
2023-05-04T06:46:28.039Z,23.40
2023-05-04T06:48:58.170Z,23.00
2023-05-04T06:51:26.155Z,22.20
2023-05-04T06:53:54.603Z,22.40
2023-05-04T06:56:22.647Z,15.80
2023-05-04T06:58:51.276Z,13.80
2023-05-04T07:01:19.337Z,13.20
2023-05-04T07:03:48.132Z,11.00
2023-05-04T07:06:17.615Z,8.10
2023-05-04T07:08:45.764Z,7.20
2023-05-04T07:11:14.051Z,5.20
2023-05-04T07:13:42.220Z,4.30
2023-05-04T07:16:10.279Z,6.00
2023-05-04T07:18:38.921Z,6.30
2023-05-04T07:21:26.760Z,4.70
2023-05-04T07:23:58.121Z,3.60
2023-05-04T07:26:26.240Z,3.70
2023-05-04T07:28:54.281Z,3.30
2023-05-04T07:31:22.290Z,2.30
2023-05-04T07:33:50.845Z,2.40
2023-05-04T07:36:18.855Z,2.80
2023-05-04T07:38:46.860Z,2.10
2023-05-04T07:41:16.174Z,1.00
2023-05-04T07:43:44.162Z,1.40
2023-05-04T07:46:13.218Z,1.00
2023-05-04T07:48:41.342Z,1.20
2023-05-04T07:51:14.004Z,1.00
2023-05-04T07:53:43.151Z,1.00
2023-05-04T07:56:12.604Z,1.00
2023-05-04T07:58:42.319Z,1.00
2023-05-04T08:01:10.373Z,1.00
2023-05-04T08:03:38.314Z,1.00
2023-05-04T08:06:06.386Z,1.00
2023-05-04T08:08:34.392Z,1.00
2023-05-04T08:11:15.897Z,1.00
2023-05-04T08:13:48.802Z,1.00
2023-05-04T08:16:16.914Z,1.00
2023-05-04T08:18:44.941Z,1.00
2023-05-04T08:21:13.306Z,1.00
2023-05-04T08:23:42.184Z,1.00
2023-05-04T08:26:10.717Z,1.00
2023-05-04T08:28:40.256Z,1.00
2023-05-04T08:31:09.906Z,1.00
2023-05-04T08:33:37.874Z,1.00
2023-05-04T08:36:06.364Z,1.00
2023-05-04T08:38:34.733Z,1.00
2023-05-04T08:41:04.492Z,1.00
2023-05-04T08:43:32.563Z,1.00
2023-05-04T08:46:00.580Z,1.00
2023-05-04T08:48:29.998Z,1.00
2023-05-04T08:50:59.552Z,1.00
2023-05-04T08:53:28.370Z,1.00
2023-05-04T08:55:57.703Z,1.00
2023-05-04T08:58:27.686Z,1.00
2023-05-04T09:00:56.896Z,1.00
2023-05-04T09:03:26.244Z,1.00
2023-05-04T09:05:55.960Z,1.00
2023-05-04T09:08:24.094Z,1.00
2023-05-04T09:10:52.124Z,1.00
2023-05-04T09:13:20.267Z,1.00
2023-05-04T09:15:55.919Z,1.00
2023-05-04T09:18:24.274Z,1.00
2023-05-04T09:20:52.337Z,1.00
2023-05-04T09:23:22.461Z,1.00
2023-05-04T09:25:51.915Z,1.00
2023-05-04T09:28:21.608Z,1.00
2023-05-04T09:30:49.978Z,1.00
2023-05-04T09:33:18.486Z,1.00
2023-05-04T09:35:46.466Z,1.00
2023-05-04T09:38:27.722Z,1.00
2023-05-04T09:40:56.518Z,1.00
2023-05-04T09:43:25.134Z,1.00
2023-05-04T09:45:53.404Z,1.00
2023-05-04T09:48:25.529Z,1.00
2023-05-04T09:50:54.722Z,1.00
2023-05-04T09:53:25.025Z,1.00
2023-05-04T09:56:05.721Z,1.00
2023-05-04T09:58:35.765Z,1.00
2023-05-04T10:01:04.004Z,1.00
2023-05-04T10:03:33.346Z,1.00
2023-05-04T10:06:04.316Z,1.50
2023-05-04T10:08:33.139Z,1.70
2023-05-04T10:11:03.146Z,1.00
2023-05-04T10:13:31.665Z,1.00
2023-05-04T10:16:16.197Z,1.00
2023-05-04T10:19:15.938Z,1.30
2023-05-04T10:21:53.706Z,1.00
2023-05-04T10:24:44.046Z,1.00
2023-05-04T10:27:16.365Z,1.00
2023-05-04T10:29:49.370Z,1.70
2023-05-04T10:32:21.824Z,1.00
2023-05-04T10:34:50.338Z,1.00
2023-05-04T10:37:19.675Z,1.00
2023-05-04T10:39:55.139Z,1.00
2023-05-04T10:42:24.603Z,1.10
2023-05-04T10:44:55.108Z,1.00
2023-05-04T10:47:32.353Z,1.00
2023-05-04T10:50:05.152Z,1.00
2023-05-04T10:52:33.694Z,1.00
2023-05-04T10:55:04.128Z,1.00
2023-05-04T10:57:33.649Z,1.00
2023-05-04T11:00:01.697Z,1.00
2023-05-04T11:02:32.415Z,1.00
2023-05-04T11:05:04.428Z,1.00
2023-05-04T11:07:37.745Z,1.00
2023-05-04T11:10:08.355Z,1.00
2023-05-04T11:12:39.328Z,1.00
2023-05-04T11:15:09.209Z,1.00
2023-05-04T11:17:46.953Z,1.00
2023-05-04T11:20:22.170Z,1.00
2023-05-04T11:22:50.722Z,1.00
2023-05-04T11:25:27.248Z,1.00
2023-05-04T11:27:58.148Z,1.00
2023-05-04T11:30:33.435Z,1.00
2023-05-04T11:33:02.303Z,1.00
2023-05-04T11:35:30.418Z,1.00
2023-05-04T11:37:58.448Z,1.00
2023-05-04T11:40:27.562Z,1.00
2023-05-04T11:42:59.379Z,1.00
2023-05-04T11:45:30.079Z,1.00
2023-05-04T11:47:59.234Z,1.00
2023-05-04T11:50:28.776Z,1.00
2023-05-04T11:53:05.416Z,1.00
2023-05-04T11:55:33.708Z,1.00
2023-05-04T11:58:04.567Z,1.00
2023-05-04T12:00:40.557Z,1.00
2023-05-04T12:03:10.013Z,1.00
2023-05-04T12:05:38.597Z,1.00
2023-05-04T12:08:08.816Z,1.00
2023-05-04T12:10:36.896Z,1.00
2023-05-04T12:13:16.978Z,1.00
2023-05-04T12:15:45.032Z,1.00
2023-05-04T12:18:22.214Z,1.00
2023-05-04T12:20:50.230Z,1.00
2023-05-04T12:23:18.308Z,1.00
2023-05-04T12:25:57.357Z,1.00
2023-05-04T12:28:28.192Z,1.00
2023-05-04T12:30:56.255Z,1.00
2023-05-04T12:33:24.787Z,1.00
2023-05-04T12:35:53.459Z,1.00
2023-05-04T12:38:21.571Z,1.00
2023-05-04T12:40:49.621Z,1.00
2023-05-04T12:43:20.747Z,1.00
2023-05-04T12:45:50.648Z,1.00
2023-05-04T12:48:20.306Z,1.00
2023-05-04T12:50:49.558Z,1.00
2023-05-04T12:53:18.079Z,1.00
2023-05-04T12:55:46.315Z,1.00
2023-05-04T12:58:14.279Z,1.00
2023-05-04T13:00:45.113Z,1.00
2023-05-04T13:03:17.612Z,1.00
2023-05-04T13:05:46.704Z,1.00
2023-05-04T13:08:14.715Z,1.00
2023-05-04T13:10:42.731Z,1.00
2023-05-04T13:13:10.773Z,1.00
2023-05-04T13:15:39.860Z,1.00
2023-05-04T13:18:07.950Z,1.00
2023-05-04T13:20:37.347Z,1.00
2023-05-04T13:23:05.365Z,1.00
2023-05-04T13:25:33.342Z,1.00
2023-05-04T13:28:01.300Z,1.00
2023-05-04T13:30:29.895Z,1.00
2023-05-04T13:32:58.013Z,1.00
2023-05-04T13:35:26.226Z,1.00
2023-05-04T13:37:55.548Z,1.00
2023-05-04T13:40:23.677Z,1.00
2023-05-04T13:42:52.142Z,1.00
2023-05-04T13:45:20.849Z,1.00
2023-05-04T13:47:48.922Z,1.00
2023-05-04T13:50:17.313Z,1.00
2023-05-04T13:52:45.340Z,1.00
2023-05-04T13:55:16.632Z,1.00
2023-05-04T13:57:45.221Z,1.00
2023-05-04T14:00:15.992Z,1.00
2023-05-04T14:02:45.662Z,1.00
2023-05-04T14:05:13.920Z,1.00
2023-05-04T14:07:41.885Z,1.00
2023-05-04T14:10:10.760Z,1.00
2023-05-04T14:12:40.226Z,1.00
2023-05-04T14:15:09.370Z,1.00
2023-05-04T14:17:39.453Z,1.00
2023-05-04T14:20:08.892Z,1.00
2023-05-04T14:22:38.280Z,1.00
2023-05-04T14:25:07.183Z,1.00
2023-05-04T14:27:35.553Z,1.00
2023-05-04T14:30:06.048Z,1.00
2023-05-04T14:32:34.267Z,1.00
2023-05-04T14:35:06.594Z,1.00
2023-05-04T14:37:37.466Z,1.00
2023-05-04T14:40:06.972Z,1.00
2023-05-04T14:42:36.539Z,1.00
2023-05-04T14:45:07.123Z,1.00
2023-05-04T14:47:35.636Z,1.00
2023-05-04T14:50:03.743Z,1.00
2023-05-04T14:52:32.938Z,1.00
2023-05-04T14:55:00.959Z,1.00
2023-05-04T14:57:28.915Z,1.00
2023-05-04T14:59:56.851Z,1.00
2023-05-04T15:02:26.806Z,1.00
2023-05-04T15:04:54.823Z,1.00
2023-05-04T15:07:22.862Z,1.00
2023-05-04T15:09:50.933Z,1.00
2023-05-04T15:12:19.056Z,1.00
2023-05-04T15:14:47.323Z,1.00
2023-05-04T15:17:16.790Z,1.00
2023-05-04T15:19:47.501Z,1.00
2023-05-04T15:22:15.530Z,1.00
2023-05-04T15:24:43.535Z,1.00
2023-05-04T15:27:11.519Z,1.00
2023-05-04T15:29:39.503Z,1.00
2023-05-04T15:32:07.550Z,1.00
2023-05-04T15:34:35.610Z,1.00
2023-05-04T15:37:05.014Z,1.00
2023-05-04T15:39:33.003Z,1.00
2023-05-04T15:42:01.373Z,1.00
2023-05-04T15:44:29.305Z,1.00
2023-05-04T15:46:57.359Z,1.00
2023-05-04T15:49:25.386Z,1.00
2023-05-04T15:51:53.937Z,1.00
2023-05-04T15:54:23.553Z,1.00
2023-05-04T15:56:51.616Z,1.00
2023-05-04T15:59:19.607Z,1.00
2023-05-04T16:01:47.651Z,1.00
2023-05-04T16:04:15.697Z,1.00
2023-05-04T16:06:43.712Z,1.00
2023-05-04T16:09:11.961Z,1.00
2023-05-04T16:11:41.485Z,1.00
2023-05-04T16:14:09.550Z,1.00
2023-05-04T16:16:37.585Z,1.00
2023-05-04T16:19:05.665Z,1.00
2023-05-04T16:21:33.658Z,1.00
2023-05-04T16:24:01.628Z,1.00
2023-05-04T16:26:29.619Z,1.00
2023-05-04T16:28:58.949Z,1.00
2023-05-04T16:31:27.019Z,1.00
2023-05-04T16:33:55.340Z,1.00
2023-05-04T16:36:23.329Z,1.00
2023-05-04T16:38:51.498Z,1.00
2023-05-04T16:41:19.759Z,1.00
2023-05-04T16:43:49.010Z,1.00
2023-05-04T16:46:18.409Z,1.00
2023-05-04T16:48:46.452Z,1.00
2023-05-04T16:51:14.683Z,1.00
2023-05-04T16:53:42.665Z,1.00
2023-05-04T16:56:18.085Z,1.00
2023-05-04T16:58:46.146Z,1.00
2023-05-04T17:01:14.179Z,1.00
2023-05-04T17:03:43.497Z,1.00
2023-05-04T17:06:11.579Z,1.00
2023-05-04T17:08:39.565Z,1.00
2023-05-04T17:11:07.801Z,1.00
2023-05-04T17:13:35.778Z,1.00
2023-05-04T17:16:03.821Z,1.00
2023-05-04T17:18:31.916Z,1.00
2023-05-04T17:21:01.238Z,1.00
2023-05-04T17:23:29.188Z,1.00
2023-05-04T17:25:57.870Z,1.00
2023-05-04T17:28:25.825Z,1.20
2023-05-04T17:30:53.882Z,1.00
2023-05-04T17:33:22.782Z,1.80
2023-05-04T17:35:50.851Z,1.70
2023-05-04T17:38:20.194Z,1.40
2023-05-04T17:40:48.412Z,1.60
2023-05-04T17:43:16.384Z,1.90
2023-05-04T17:45:44.468Z,2.10
2023-05-04T17:48:12.462Z,2.10
2023-05-04T17:50:41.798Z,2.10
2023-05-04T17:53:09.729Z,2.30
2023-05-04T17:55:39.017Z,2.30
2023-05-04T17:58:07.034Z,2.50
2023-05-04T18:00:35.221Z,2.60
2023-05-04T18:03:03.305Z,2.90
2023-05-04T18:05:32.123Z,3.30
2023-05-04T18:08:00.317Z,2.90
2023-05-04T18:10:28.508Z,3.20
2023-05-04T18:13:00.282Z,3.30
2023-05-04T18:15:28.459Z,3.80
2023-05-04T18:17:56.534Z,3.60
2023-05-04T18:20:24.846Z,3.70
2023-05-04T18:22:52.807Z,3.80
2023-05-04T18:25:20.783Z,4.10
2023-05-04T18:27:48.722Z,4.20
2023-05-04T18:30:18.059Z,4.30
2023-05-04T18:32:46.628Z,4.60
2023-05-04T18:35:14.696Z,5.20
2023-05-04T18:37:42.679Z,6.60
2023-05-04T18:40:11.556Z,8.20
2023-05-04T18:42:39.594Z,9.40
2023-05-04T18:45:10.310Z,10.20
2023-05-04T18:47:39.692Z,10.90
2023-05-04T18:50:09.887Z,12.90
2023-05-04T18:52:37.982Z,12.60
2023-05-04T18:55:07.283Z,14.20
2023-05-04T18:57:35.257Z,15.00
2023-05-04T19:00:03.485Z,16.40
2023-05-04T19:02:31.587Z,18.80
2023-05-04T19:05:00.960Z,18.70
2023-05-04T19:07:28.933Z,19.20
2023-05-04T19:09:56.952Z,20.40
2023-05-04T19:12:25.066Z,21.00
2023-05-04T19:14:53.017Z,22.40
2023-05-04T19:17:21.075Z,21.50
2023-05-04T19:19:49.046Z,21.10
2023-05-04T19:22:18.377Z,20.30
2023-05-04T19:24:51.272Z,21.70
2023-05-04T19:27:19.340Z,23.90
2023-05-04T19:29:47.817Z,23.10
2023-05-04T19:32:24.405Z,23.10
2023-05-04T19:34:53.484Z,23.80
2023-05-04T19:37:22.922Z,22.80
2023-05-04T19:39:50.980Z,22.70
2023-05-04T19:42:19.147Z,24.10
2023-05-04T19:44:47.104Z,24.20
2023-05-04T19:47:15.082Z,25.10
2023-05-04T19:49:43.060Z,25.30
2023-05-04T19:52:11.109Z,25.80
2023-05-04T19:54:41.292Z,26.50
2023-05-04T19:57:10.053Z,26.60
2023-05-04T19:59:38.109Z,28.40
2023-05-04T20:02:06.199Z,30.90
2023-05-04T20:04:34.331Z,33.80
2023-05-04T20:07:02.309Z,34.70
2023-05-04T20:09:30.321Z,36.80
2023-05-04T20:11:59.628Z,40.00
2023-05-04T20:14:27.694Z,39.90
2023-05-04T20:16:56.416Z,39.90
2023-05-04T20:19:24.447Z,43.60
2023-05-04T20:21:52.423Z,47.00
2023-05-04T20:24:20.459Z,50.80
2023-05-04T20:26:48.452Z,52.40
2023-05-04T20:29:17.832Z,52.00
2023-05-04T20:31:45.843Z,55.70
2023-05-04T20:34:13.836Z,54.70
2023-05-04T20:36:42.318Z,55.40
2023-05-04T20:39:10.540Z,56.70
2023-05-04T20:41:39.223Z,57.10
2023-05-04T20:44:07.187Z,57.30
2023-05-04T20:46:37.479Z,59.10
2023-05-04T20:49:05.515Z,59.00
2023-05-04T20:51:33.461Z,56.50
2023-05-04T20:54:01.633Z,56.60
2023-05-04T20:56:29.647Z,59.50
2023-05-04T20:58:57.640Z,61.40
2023-05-04T21:01:25.639Z,63.20
2023-05-04T21:03:55.029Z,64.80
2023-05-04T21:06:24.237Z,66.70
2023-05-04T21:08:52.254Z,68.00
2023-05-04T21:11:20.196Z,68.00
2023-05-04T21:13:48.174Z,70.90
2023-05-04T21:16:16.232Z,71.80
2023-05-04T21:18:44.769Z,71.80
2023-05-04T21:21:14.097Z,71.90
2023-05-04T21:23:42.089Z,70.90
2023-05-04T21:26:10.279Z,70.40
2023-05-04T21:28:38.287Z,70.30
2023-05-04T21:31:08.214Z,70.60
2023-05-04T21:33:36.365Z,71.00
2023-05-04T21:36:13.887Z,70.30
2023-05-04T21:38:42.619Z,70.90
2023-05-04T21:41:12.073Z,70.80
2023-05-04T21:43:40.371Z,70.10
2023-05-04T21:46:08.960Z,70.20
2023-05-04T21:48:37.277Z,69.80
2023-05-04T21:51:05.628Z,69.80
2023-05-04T21:53:34.956Z,69.80
2023-05-04T21:56:06.609Z,68.50
2023-05-04T21:58:34.673Z,69.80
2023-05-04T22:01:03.437Z,70.00
2023-05-04T22:03:31.716Z,69.70
2023-05-04T22:05:59.748Z,70.00
2023-05-04T22:08:27.980Z,71.00
2023-05-04T22:10:58.809Z,70.70
2023-05-04T22:13:26.954Z,71.90
2023-05-04T22:15:55.312Z,71.50
2023-05-04T22:18:23.717Z,71.80
2023-05-04T22:20:51.963Z,72.80
2023-05-04T22:23:19.948Z,74.80
2023-05-04T22:25:47.929Z,74.70
2023-05-04T22:28:17.222Z,75.50
2023-05-04T22:30:45.219Z,76.70
2023-05-04T22:33:13.231Z,76.40
2023-05-04T22:35:41.257Z,77.00
2023-05-04T22:38:09.511Z,76.30
2023-05-04T22:40:40.372Z,75.80
2023-05-04T22:43:08.562Z,74.80
2023-05-04T22:45:39.006Z,76.30
2023-05-04T22:48:07.072Z,79.00
2023-05-04T22:50:35.409Z,83.10
2023-05-04T22:53:03.627Z,86.70
2023-05-04T22:55:31.966Z,85.50
2023-05-04T22:58:00.086Z,85.20
2023-05-04T23:00:28.494Z,84.80
2023-05-04T23:02:57.846Z,84.80
2023-05-04T23:05:25.993Z,84.60
2023-05-04T23:07:53.943Z,84.60
2023-05-04T23:10:22.219Z,84.20
2023-05-04T23:12:50.266Z,83.90
2023-05-04T23:15:19.178Z,84.50
2023-05-04T23:17:47.427Z,84.50
2023-05-04T23:20:16.848Z,86.00
2023-05-04T23:22:44.830Z,88.00
2023-05-04T23:25:12.812Z,87.30
2023-05-04T23:27:40.785Z,86.30
2023-05-04T23:30:10.278Z,86.10
2023-05-04T23:32:38.470Z,85.90
2023-05-04T23:35:07.719Z,86.40
2023-05-04T23:37:37.068Z,86.00
2023-05-04T23:40:05.798Z,85.30
2023-05-04T23:42:33.851Z,85.50
2023-05-04T23:45:01.841Z,86.70
2023-05-04T23:47:29.881Z,87.70
2023-05-04T23:49:57.915Z,89.60
2023-05-04T23:52:25.981Z,90.20
2023-05-04T23:54:55.649Z,90.80
2023-05-04T23:57:23.637Z,90.40
2023-05-04T23:59:53.063Z,90.50
